createdAt,value
2023-03-19T00:00:21.786Z,5.13
2023-03-19T00:02:51.851Z,5.43
2023-03-19T00:05:19.970Z,6.13
2023-03-19T00:07:47.850Z,5.47
2023-03-19T00:10:15.841Z,4.57
2023-03-19T00:12:43.837Z,4.50
2023-03-19T00:15:14.537Z,4.30
2023-03-19T00:17:43.966Z,5.67
2023-03-19T00:20:15.569Z,4.13
2023-03-19T00:22:43.780Z,3.87
2023-03-19T00:25:12.214Z,6.03
2023-03-19T00:27:41.255Z,4.57
2023-03-19T00:30:11.452Z,4.63
2023-03-19T00:32:39.610Z,4.27
2023-03-19T00:35:10.696Z,3.37
2023-03-19T00:37:41.020Z,5.23
2023-03-19T00:40:11.764Z,5.80
2023-03-19T00:42:41.288Z,5.37
2023-03-19T00:45:10.660Z,5.20
2023-03-19T00:47:38.847Z,5.07
2023-03-19T00:50:07.790Z,4.20
2023-03-19T00:52:37.052Z,4.60
2023-03-19T00:55:05.424Z,4.03
2023-03-19T00:57:33.240Z,3.97
2023-03-19T01:00:01.035Z,6.67
2023-03-19T01:02:29.285Z,5.90
2023-03-19T01:04:57.235Z,5.60
2023-03-19T01:07:25.140Z,4.93
2023-03-19T01:09:54.412Z,4.83
2023-03-19T01:12:22.403Z,3.40
2023-03-19T01:14:50.333Z,3.83
2023-03-19T01:17:18.710Z,3.73
2023-03-19T01:19:46.691Z,3.53
2023-03-19T01:22:16.651Z,3.93
2023-03-19T01:24:49.158Z,4.90
2023-03-19T01:27:19.430Z,4.30
2023-03-19T01:29:47.375Z,5.10
2023-03-19T01:32:28.535Z,5.73
2023-03-19T01:35:15.122Z,3.60
2023-03-19T01:37:43.505Z,3.80
2023-03-19T01:40:13.973Z,4.80
2023-03-19T01:42:58.761Z,3.50
2023-03-19T01:45:43.849Z,7.83
2023-03-19T01:48:39.069Z,5.77
2023-03-19T01:51:13.169Z,5.87
2023-03-19T01:54:02.270Z,6.03
2023-03-19T01:56:39.130Z,6.03
2023-03-19T01:59:32.516Z,6.40
2023-03-19T02:02:30.684Z,6.00
2023-03-19T02:05:05.687Z,5.77
2023-03-19T02:07:36.544Z,5.30
2023-03-19T02:10:09.199Z,6.37
2023-03-19T02:12:37.308Z,7.23
2023-03-19T02:15:09.383Z,4.87
2023-03-19T02:17:38.144Z,3.30
2023-03-19T02:20:14.596Z,3.70
2023-03-19T02:22:47.509Z,2.97
2023-03-19T02:25:23.660Z,2.70
2023-03-19T02:27:53.657Z,3.13
2023-03-19T02:30:24.730Z,2.20
2023-03-19T02:32:52.943Z,2.70
2023-03-19T02:35:21.367Z,2.20
2023-03-19T02:37:49.733Z,2.40
2023-03-19T02:40:22.425Z,1.93
2023-03-19T02:42:51.279Z,2.00
2023-03-19T02:45:21.344Z,2.20
2023-03-19T02:47:49.217Z,2.60
2023-03-19T02:50:17.331Z,2.80
2023-03-19T02:52:45.259Z,2.37
2023-03-19T02:55:18.316Z,2.67
2023-03-19T02:57:46.518Z,3.10
2023-03-19T03:00:17.073Z,2.20
2023-03-19T03:02:46.838Z,2.13
2023-03-19T03:05:15.492Z,2.23
2023-03-19T03:07:44.998Z,2.20
2023-03-19T03:10:13.611Z,2.33
2023-03-19T03:12:41.549Z,2.37
2023-03-19T03:15:10.369Z,2.43
2023-03-19T03:17:38.737Z,1.90
2023-03-19T03:20:11.569Z,2.00
2023-03-19T03:22:39.947Z,2.37
2023-03-19T03:25:09.851Z,2.77
2023-03-19T03:27:38.331Z,2.73
2023-03-19T03:30:08.065Z,2.93
2023-03-19T03:32:36.770Z,2.90
2023-03-19T03:35:05.423Z,2.73
2023-03-19T03:37:38.036Z,2.90
2023-03-19T03:40:08.379Z,2.60
2023-03-19T03:42:38.203Z,3.17
2023-03-19T03:45:10.766Z,1.70
2023-03-19T03:47:39.590Z,2.37
2023-03-19T03:50:11.059Z,2.53
2023-03-19T03:52:42.050Z,2.00
2023-03-19T03:55:10.910Z,2.50
2023-03-19T03:57:38.665Z,2.40
2023-03-19T04:00:07.494Z,3.17
2023-03-19T04:02:41.393Z,2.60
2023-03-19T04:05:13.377Z,2.67
2023-03-19T04:07:42.809Z,2.60
2023-03-19T04:10:12.871Z,2.80
2023-03-19T04:12:41.564Z,4.43
2023-03-19T04:15:11.954Z,4.40
2023-03-19T04:17:42.628Z,3.53
2023-03-19T04:20:12.562Z,3.27
2023-03-19T04:22:41.811Z,3.57
2023-03-19T04:25:10.489Z,3.40
2023-03-19T04:27:39.893Z,4.27
2023-03-19T04:30:11.525Z,4.93
2023-03-19T04:32:40.442Z,4.80
2023-03-19T04:35:09.471Z,4.57
2023-03-19T04:37:37.604Z,4.63
2023-03-19T04:40:08.454Z,3.60
2023-03-19T04:42:38.561Z,5.13
2023-03-19T04:45:14.662Z,4.70
2023-03-19T04:47:43.657Z,5.40
2023-03-19T04:50:12.909Z,4.90
2023-03-19T04:52:42.635Z,5.33
2023-03-19T04:55:13.434Z,4.93
2023-03-19T04:57:52.074Z,5.70
2023-03-19T05:00:23.057Z,5.00
2023-03-19T05:02:51.361Z,3.97
2023-03-19T05:05:19.460Z,4.37
2023-03-19T05:07:47.698Z,4.40
2023-03-19T05:10:16.962Z,3.80
2023-03-19T05:12:45.070Z,4.40
2023-03-19T05:15:13.993Z,5.30
2023-03-19T05:17:54.483Z,4.23
2023-03-19T05:20:25.462Z,4.50
2023-03-19T05:22:59.482Z,4.30
2023-03-19T05:25:42.169Z,3.43
2023-03-19T05:28:14.113Z,3.43
2023-03-19T05:30:43.206Z,3.63
2023-03-19T05:33:40.522Z,4.13
2023-03-19T05:36:09.248Z,4.43
2023-03-19T05:39:03.965Z,4.50
2023-03-19T05:41:37.727Z,3.60
2023-03-19T05:44:07.753Z,4.43
2023-03-19T05:46:46.761Z,4.50
2023-03-19T05:49:14.912Z,3.73
2023-03-19T05:51:42.860Z,3.73
2023-03-19T05:54:11.758Z,3.20
2023-03-19T05:56:53.733Z,3.23
2023-03-19T05:59:35.085Z,2.60
2023-03-19T06:02:17.470Z,3.00
2023-03-19T06:04:45.747Z,2.97
2023-03-19T06:07:13.784Z,2.90
2023-03-19T06:09:42.126Z,4.30
2023-03-19T06:12:13.755Z,3.63
2023-03-19T06:15:02.290Z,3.13
2023-03-19T06:17:41.877Z,4.50
2023-03-19T06:20:12.597Z,4.67
2023-03-19T06:22:41.502Z,4.03
2023-03-19T06:25:09.793Z,3.87
2023-03-19T06:27:40.526Z,4.30
2023-03-19T06:30:28.629Z,3.30
2023-03-19T06:33:00.320Z,3.07
2023-03-19T06:35:29.338Z,3.37
2023-03-19T06:37:57.300Z,3.90
2023-03-19T06:40:25.203Z,2.80
2023-03-19T06:42:54.549Z,3.87
2023-03-19T06:45:22.447Z,2.80
2023-03-19T06:47:53.395Z,3.40
2023-03-19T06:50:23.548Z,3.40
2023-03-19T06:52:52.098Z,3.33
2023-03-19T06:55:20.618Z,3.80
2023-03-19T06:57:50.594Z,3.50
2023-03-19T07:00:21.012Z,4.37
2023-03-19T07:02:49.191Z,3.63
2023-03-19T07:05:17.140Z,3.63
2023-03-19T07:07:46.684Z,4.40
2023-03-19T07:10:14.816Z,3.30
2023-03-19T07:12:43.322Z,3.93
2023-03-19T07:15:12.090Z,3.30
2023-03-19T07:17:41.680Z,3.90
2023-03-19T07:20:11.167Z,3.60
2023-03-19T07:22:39.091Z,3.40
2023-03-19T07:25:07.810Z,3.80
2023-03-19T07:27:35.870Z,4.23
2023-03-19T07:30:03.804Z,3.57
2023-03-19T07:32:32.401Z,3.10
2023-03-19T07:35:01.878Z,2.67
2023-03-19T07:37:29.763Z,4.23
2023-03-19T07:39:57.519Z,3.27
2023-03-19T07:42:25.835Z,3.10
2023-03-19T07:44:53.677Z,3.37
2023-03-19T07:47:28.833Z,3.57
2023-03-19T07:49:57.926Z,3.70
2023-03-19T07:52:28.670Z,3.57
2023-03-19T07:54:56.806Z,4.20
2023-03-19T07:57:25.481Z,4.17
2023-03-19T07:59:53.393Z,4.00
2023-03-19T08:02:23.720Z,3.53
2023-03-19T08:04:52.948Z,3.87
2023-03-19T08:07:21.656Z,3.00
2023-03-19T08:09:51.562Z,3.93
2023-03-19T08:12:20.343Z,3.60
2023-03-19T08:14:48.764Z,3.60
2023-03-19T08:17:17.176Z,4.30
2023-03-19T08:19:45.035Z,3.77
2023-03-19T08:22:13.087Z,3.80
2023-03-19T08:24:41.555Z,3.53
2023-03-19T08:27:11.217Z,4.23
2023-03-19T08:29:39.178Z,3.80
2023-03-19T08:32:07.688Z,3.80
2023-03-19T08:34:36.204Z,3.53
2023-03-19T08:37:04.237Z,3.60
2023-03-19T08:39:32.285Z,3.10
2023-03-19T08:42:00.192Z,3.60
2023-03-19T08:44:29.716Z,3.10
2023-03-19T08:46:57.592Z,2.60
2023-03-19T08:49:25.460Z,4.00
2023-03-19T08:51:53.352Z,2.93
2023-03-19T08:54:22.906Z,3.77
2023-03-19T08:56:51.051Z,3.50
2023-03-19T08:59:19.058Z,3.43
2023-03-19T09:01:52.171Z,3.57
2023-03-19T09:04:23.080Z,3.40
2023-03-19T09:06:51.678Z,3.10
2023-03-19T09:09:20.246Z,4.17
2023-03-19T09:11:48.447Z,3.90
2023-03-19T09:14:17.945Z,3.53
2023-03-19T09:16:45.937Z,3.13
2023-03-19T09:19:15.600Z,3.80
2023-03-19T09:21:44.810Z,3.33
2023-03-19T09:24:13.074Z,3.70
2023-03-19T09:26:41.158Z,3.60
2023-03-19T09:29:09.181Z,3.77
2023-03-19T09:31:38.318Z,3.53
2023-03-19T09:34:07.078Z,3.40
2023-03-19T09:36:36.872Z,3.40
2023-03-19T09:39:05.370Z,3.50
2023-03-19T09:41:41.323Z,2.93
2023-03-19T09:44:13.957Z,3.00
2023-03-19T09:46:48.167Z,2.67
2023-03-19T09:49:25.016Z,3.33
2023-03-19T09:51:57.687Z,5.30
2023-03-19T09:54:34.742Z,4.40
2023-03-19T09:57:04.220Z,3.05
2023-03-19T09:59:32.126Z,2.88
2023-03-19T10:02:25.347Z,3.00
2023-03-19T10:05:05.673Z,2.83
2023-03-19T10:07:50.774Z,3.17
2023-03-19T10:10:36.739Z,2.78
2023-03-19T10:13:13.272Z,2.78
2023-03-19T10:15:44.624Z,2.67
2023-03-19T10:18:18.106Z,2.70
2023-03-19T10:20:53.362Z,2.78
2023-03-19T10:23:36.271Z,3.08
2023-03-19T10:26:06.756Z,2.25
2023-03-19T10:28:34.813Z,2.40
2023-03-19T10:31:25.885Z,2.83
2023-03-19T10:34:06.258Z,2.63
2023-03-19T10:36:37.071Z,1.83
2023-03-19T10:39:07.876Z,1.83
2023-03-19T10:41:52.175Z,2.78
2023-03-19T10:44:32.309Z,1.75
2023-03-19T10:47:10.343Z,1.98
2023-03-19T10:49:38.431Z,1.92
2023-03-19T10:52:06.946Z,1.73
2023-03-19T10:54:44.815Z,1.80
2023-03-19T10:57:24.152Z,1.30
2023-03-19T10:59:52.185Z,1.50
2023-03-19T11:02:28.071Z,1.60
2023-03-19T11:05:20.113Z,1.90
2023-03-19T11:07:50.952Z,1.92
2023-03-19T11:10:30.407Z,1.75
2023-03-19T11:13:02.217Z,1.77
2023-03-19T11:15:44.924Z,1.70
2023-03-19T11:18:24.222Z,1.48
2023-03-19T11:21:28.972Z,1.77
2023-03-19T11:24:15.781Z,1.38
2023-03-19T11:27:04.554Z,1.58
2023-03-19T11:29:53.176Z,1.60
2023-03-19T11:32:44.194Z,1.73
2023-03-19T11:35:43.169Z,1.77
2023-03-19T11:38:26.944Z,1.30
2023-03-19T11:41:26.362Z,1.50
2023-03-19T11:44:23.150Z,1.42
2023-03-19T11:47:26.461Z,1.52
2023-03-19T11:50:22.400Z,1.38
2023-03-19T11:53:23.205Z,1.63
2023-03-19T11:56:08.426Z,1.48
2023-03-19T11:59:16.140Z,1.58
2023-03-19T12:02:19.037Z,2.00
2023-03-19T12:05:23.437Z,1.55
2023-03-19T12:08:35.511Z,1.52
2023-03-19T12:11:22.004Z,1.83
2023-03-19T12:14:26.704Z,1.85
2023-03-19T12:17:39.198Z,2.05
2023-03-19T12:20:50.071Z,2.08
2023-03-19T12:23:49.792Z,1.90
2023-03-19T12:26:26.974Z,1.70
2023-03-19T12:29:04.055Z,1.73
2023-03-19T12:32:00.228Z,2.10
2023-03-19T12:34:36.473Z,2.00
2023-03-19T12:37:19.846Z,1.73
2023-03-19T12:39:55.943Z,1.60
2023-03-19T12:42:29.975Z,2.00
2023-03-19T12:45:07.072Z,2.42
2023-03-19T12:48:03.977Z,2.70
2023-03-19T12:50:58.485Z,2.08
2023-03-19T12:53:38.018Z,2.17
2023-03-19T12:56:13.877Z,2.03
2023-03-19T12:58:58.089Z,2.38
2023-03-19T13:01:31.480Z,2.60
2023-03-19T13:04:07.768Z,2.80
2023-03-19T13:06:40.856Z,2.75
2023-03-19T13:09:18.957Z,8.70
2023-03-19T13:11:53.080Z,5.68
2023-03-19T13:14:28.908Z,32.03
2023-03-19T13:17:10.513Z,39.00
2023-03-19T13:19:44.885Z,16.98
2023-03-19T13:22:19.988Z,14.70
2023-03-19T13:24:50.673Z,8.10
2023-03-19T13:27:23.277Z,19.08
2023-03-19T13:30:17.755Z,4.00
2023-03-19T13:32:49.273Z,8.63
2023-03-19T13:35:37.147Z,7.90
2023-03-19T13:38:16.689Z,5.90
2023-03-19T13:40:47.691Z,6.00
2023-03-19T13:43:53.203Z,2.67
2023-03-19T13:46:46.180Z,2.67
2023-03-19T13:49:27.300Z,1.85
2023-03-19T13:51:58.380Z,2.10
2023-03-19T13:54:39.381Z,3.00
2023-03-19T13:57:35.588Z,1.83
2023-03-19T14:00:41.006Z,1.85
2023-03-19T14:03:21.435Z,3.15
2023-03-19T14:05:51.827Z,2.70
2023-03-19T14:08:22.855Z,2.50
2023-03-19T14:10:54.260Z,5.85
2023-03-19T14:13:31.376Z,3.25
2023-03-19T14:16:13.760Z,2.75
2023-03-19T14:18:44.112Z,5.00
2023-03-19T14:21:18.944Z,4.00
2023-03-19T14:23:57.730Z,1.88
2023-03-19T14:26:29.869Z,1.60
2023-03-19T14:29:01.812Z,1.42
2023-03-19T14:31:43.610Z,1.40
2023-03-19T14:34:33.672Z,0.90
2023-03-19T14:37:04.667Z,1.02
2023-03-19T14:39:35.666Z,2.28
2023-03-19T14:42:08.597Z,2.10
2023-03-19T14:45:14.639Z,2.28
2023-03-19T14:47:57.487Z,2.55
2023-03-19T14:51:06.790Z,1.58
2023-03-19T14:53:41.548Z,2.10
2023-03-19T14:56:16.056Z,3.28
2023-03-19T14:58:54.151Z,3.10
2023-03-19T15:01:24.729Z,2.05
2023-03-19T15:03:58.226Z,1.55
2023-03-19T15:06:26.972Z,1.20
2023-03-19T15:08:54.913Z,1.90
2023-03-19T15:11:42.992Z,1.48
2023-03-19T15:14:37.818Z,1.65
2023-03-19T15:17:16.923Z,1.67
2023-03-19T15:19:44.993Z,2.58
2023-03-19T15:22:15.119Z,1.63
2023-03-19T15:24:43.483Z,1.80
2023-03-19T15:27:19.748Z,1.70
2023-03-19T15:29:51.561Z,1.70
2023-03-19T15:33:02.825Z,1.90
2023-03-19T15:35:24.249Z,2.10
2023-03-19T15:37:55.962Z,2.08
2023-03-19T15:40:27.189Z,2.00
2023-03-19T15:42:55.930Z,1.83
2023-03-19T15:45:27.188Z,1.70
2023-03-19T15:48:00.735Z,2.22
2023-03-19T15:50:32.381Z,1.80
2023-03-19T15:53:03.957Z,2.30
2023-03-19T15:55:34.178Z,1.88
2023-03-19T15:58:07.660Z,2.38
2023-03-19T16:00:40.258Z,3.00
2023-03-19T16:03:13.286Z,2.33
2023-03-19T16:05:41.222Z,1.70
2023-03-19T16:08:16.408Z,2.08
2023-03-19T16:10:47.369Z,2.05
2023-03-19T16:13:26.965Z,3.10
2023-03-19T16:16:04.451Z,2.30
2023-03-19T16:18:43.151Z,2.00
2023-03-19T16:21:16.691Z,1.60
2023-03-19T16:23:46.844Z,1.40
2023-03-19T16:26:21.687Z,1.50
2023-03-19T16:29:05.983Z,1.65
2023-03-19T16:31:44.432Z,1.75
2023-03-19T16:34:25.941Z,1.33
2023-03-19T16:36:54.029Z,1.50
2023-03-19T16:39:27.313Z,1.80
2023-03-19T16:42:16.626Z,1.60
2023-03-19T16:44:48.394Z,1.95
2023-03-19T16:47:17.684Z,1.67
2023-03-19T16:49:47.363Z,1.63
2023-03-19T16:52:18.359Z,2.58
2023-03-19T16:54:46.791Z,2.00
2023-03-19T16:57:17.040Z,1.93
2023-03-19T16:59:45.977Z,2.43
2023-03-19T17:02:14.219Z,2.47
2023-03-19T17:04:43.648Z,1.90
2023-03-19T17:07:11.653Z,2.00
2023-03-19T17:09:39.700Z,1.70
2023-03-19T17:12:09.411Z,1.87
2023-03-19T17:14:38.537Z,1.67
2023-03-19T17:17:14.144Z,2.30
2023-03-19T17:19:43.868Z,3.57
2023-03-19T17:22:13.193Z,2.90
2023-03-19T17:24:41.644Z,2.97
2023-03-19T17:27:11.196Z,2.47
2023-03-19T17:29:39.721Z,2.53
2023-03-19T17:32:17.902Z,3.33
2023-03-19T17:34:48.000Z,2.60
2023-03-19T17:37:16.115Z,3.67
2023-03-19T17:39:45.908Z,4.63
2023-03-19T17:42:24.961Z,3.90
2023-03-19T17:44:53.344Z,2.95
2023-03-19T17:47:21.344Z,3.30
2023-03-19T17:49:50.605Z,3.15
2023-03-19T17:52:19.493Z,3.55
2023-03-19T17:54:47.875Z,3.03
2023-03-19T17:57:17.840Z,3.85
2023-03-19T18:02:26.062Z,3.95
2023-03-19T18:04:56.209Z,2.60
2023-03-19T18:07:24.235Z,2.50
2023-03-19T18:09:52.454Z,2.10
2023-03-19T18:12:20.692Z,1.83
2023-03-19T18:14:48.752Z,2.00
2023-03-19T18:17:17.903Z,2.30
2023-03-19T18:19:49.188Z,1.80
2023-03-19T18:22:20.409Z,2.27
2023-03-19T18:24:48.591Z,1.97
2023-03-19T18:27:18.818Z,1.63
2023-03-19T18:29:46.899Z,2.10
2023-03-19T18:32:21.074Z,1.70
2023-03-19T18:34:50.311Z,1.43
2023-03-19T18:37:20.859Z,1.80
2023-03-19T18:39:50.088Z,2.07
2023-03-19T18:42:24.838Z,2.63
2023-03-19T18:45:16.178Z,2.50
2023-03-19T18:48:08.239Z,2.43
2023-03-19T18:50:36.531Z,2.20
2023-03-19T18:53:06.005Z,2.10
2023-03-19T18:55:34.331Z,2.60
2023-03-19T18:58:04.288Z,2.00
2023-03-19T19:00:35.934Z,2.07
2023-03-19T19:03:05.818Z,3.00
2023-03-19T19:05:34.873Z,3.10
2023-03-19T19:08:05.114Z,5.00
2023-03-19T19:10:35.677Z,4.83
2023-03-19T19:13:04.853Z,4.67
2023-03-19T19:15:35.996Z,4.40
2023-03-19T19:18:15.875Z,4.00
2023-03-19T19:20:45.906Z,3.30
2023-03-19T19:23:16.068Z,4.10
2023-03-19T19:25:46.378Z,3.37
2023-03-19T19:28:21.909Z,3.80
2023-03-19T19:30:50.698Z,4.27
2023-03-19T19:33:20.339Z,4.60
2023-03-19T19:35:49.653Z,4.80
2023-03-19T19:38:19.838Z,5.00
2023-03-19T19:40:51.700Z,4.70
2023-03-19T19:43:21.737Z,4.67
2023-03-19T19:45:52.966Z,4.23
2023-03-19T19:48:22.745Z,4.57
2023-03-19T19:50:51.026Z,4.23
2023-03-19T19:53:23.929Z,3.40
2023-03-19T19:55:52.450Z,4.80
2023-03-19T19:58:22.828Z,4.47
2023-03-19T20:01:02.681Z,3.77
2023-03-19T20:03:33.770Z,4.07
2023-03-19T20:06:03.012Z,3.00
2023-03-19T20:08:32.968Z,3.33
2023-03-19T20:11:00.918Z,2.90
2023-03-19T20:13:32.618Z,3.87
2023-03-19T20:16:01.304Z,3.37
2023-03-19T20:18:33.418Z,4.57
2023-03-19T20:21:02.342Z,4.17
2023-03-19T20:23:30.666Z,4.83
2023-03-19T20:26:01.822Z,3.40
2023-03-19T20:28:35.744Z,3.73
2023-03-19T20:31:05.632Z,3.93
2023-03-19T20:33:34.789Z,3.40
2023-03-19T20:36:07.305Z,3.10
2023-03-19T20:38:38.034Z,3.17
2023-03-19T20:41:24.109Z,3.20
2023-03-19T20:43:55.787Z,3.80
2023-03-19T20:46:26.444Z,5.60
2023-03-19T20:48:56.606Z,3.47
2023-03-19T20:51:31.510Z,6.00
2023-03-19T20:54:00.456Z,4.87
2023-03-19T20:56:30.769Z,5.90
2023-03-19T20:59:01.963Z,4.10
2023-03-19T21:01:30.827Z,5.63
2023-03-19T21:04:03.272Z,6.40
2023-03-19T21:06:52.580Z,5.27
2023-03-19T21:09:26.023Z,4.20
2023-03-19T21:11:57.650Z,6.10
2023-03-19T21:14:27.026Z,5.25
2023-03-19T21:16:55.451Z,5.50
2023-03-19T21:19:24.028Z,6.80
2023-03-19T21:21:54.927Z,6.07
2023-03-19T21:24:24.719Z,6.60
2023-03-19T21:26:56.942Z,5.30
2023-03-19T21:29:32.535Z,6.20
2023-03-19T21:32:00.752Z,5.45
2023-03-19T21:34:29.489Z,4.57
2023-03-19T21:36:58.369Z,5.32
2023-03-19T21:39:26.390Z,5.07
2023-03-19T21:41:57.172Z,6.00
2023-03-19T21:44:29.765Z,5.35
2023-03-19T21:46:57.732Z,5.30
2023-03-19T21:49:25.811Z,4.18
2023-03-19T21:51:53.748Z,4.88
2023-03-19T21:54:21.892Z,3.25
2023-03-19T21:56:50.493Z,4.38
2023-03-19T21:59:33.810Z,4.53
2023-03-19T22:02:04.246Z,4.68
2023-03-19T22:04:32.530Z,3.80
2023-03-19T22:07:00.775Z,6.00
2023-03-19T22:09:29.051Z,6.25
2023-03-19T22:11:57.363Z,5.82
2023-03-19T22:14:28.016Z,5.90
2023-03-19T22:16:57.818Z,4.90
2023-03-19T22:19:26.061Z,4.75
2023-03-19T22:21:55.256Z,5.77
2023-03-19T22:24:23.344Z,4.53
2023-03-19T22:26:57.506Z,4.90
2023-03-19T22:29:26.638Z,3.90
2023-03-19T22:31:56.491Z,4.27
2023-03-19T22:34:28.188Z,3.40
2023-03-19T22:36:56.592Z,3.58
2023-03-19T22:39:24.679Z,4.33
2023-03-19T22:41:52.957Z,4.32
2023-03-19T22:44:27.051Z,4.38
2023-03-19T22:46:58.600Z,4.75
2023-03-19T22:49:30.205Z,4.70
2023-03-19T22:52:00.853Z,5.03
2023-03-19T22:54:28.775Z,4.90
2023-03-19T22:56:57.807Z,4.47
2023-03-19T22:59:25.829Z,4.80
2023-03-19T23:01:53.954Z,4.60
2023-03-19T23:04:24.362Z,4.78
2023-03-19T23:06:55.602Z,4.07
2023-03-19T23:09:25.206Z,4.40
2023-03-19T23:11:53.998Z,3.40
2023-03-19T23:14:29.641Z,2.90
2023-03-19T23:17:03.100Z,1.90
2023-03-19T23:19:33.170Z,1.53
2023-03-19T23:22:04.831Z,1.47
2023-03-19T23:24:33.583Z,1.33
2023-03-19T23:27:02.810Z,1.60
2023-03-19T23:29:34.290Z,1.10
2023-03-19T23:32:03.285Z,1.20
2023-03-19T23:34:39.819Z,1.10
2023-03-19T23:37:15.729Z,1.10
2023-03-19T23:39:43.642Z,0.82
2023-03-19T23:42:25.942Z,0.93
2023-03-19T23:44:57.068Z,0.90
2023-03-19T23:47:25.176Z,0.80
2023-03-19T23:49:53.039Z,1.10
2023-03-19T23:52:22.433Z,1.60
2023-03-19T23:54:50.920Z,1.87
2023-03-19T23:57:18.826Z,1.73
2023-03-19T23:59:50.830Z,1.00
